CheckWX is a tool to help pilots better visualize weather data.  It is not intended as a substitute for an official pre-flight weather briefing.

23:47:12 UTC

EGGW TAF
London Luton Airport
London, United Kingdom
TAF EGGW 192301Z 2000/2024 28005KT CAVOK TEMPO 2000/2011 7000

Jan-20@
00:00 UTC

Jan-20 @ 00:00 UTC

Jan-21@
00:00 UTC

Jan-21 @ 00:00 UTC

TAF EGGW 192301Z 2000/2024 28005KT CAVOK
Wind
  • 280° at 5 KTS
Conditions
No significant weather
Cloud Levels
  • No significant clouds

Jan-20@
00:00 UTC

Jan-20 @ 00:00 UTC

Jan-20@
11:00 UTC

Jan-20 @ 11:00 UTC

TEMPO 2000/2011 7000

Temporary

Temporary Changes expected for less than half the time period